• Join FlightAware (Why Join?)
  • Login
  • US Flag 
04:16PM EDT


 

Airport Tracker/Info


-or-


 

Live Flight TrackerFlight Track Log ✈ SWA1725 ✈ 31-Aug-2013 ✈ KBWI - KSTL

Flight Track Log - Related Links

Times and Time Zones

All times are in EDT time to prevent confusion due to time zone crossing. See the SWA1725 flight status page for this flight to view local times or setup timezone preferences in your user account.

Time Position Orientation Groundspeed Altitude Reporting Facility
EDT Latitude Longitude Course Direction KTS MPH feet Rate Location/Type
04:53PM 39.1833 -76.7333 218° Southwest 183 211 2,600  Level Potomac TRACON
04:54PM 39.2000 -76.8167 284° West 246 283 6,000 3,840 Climbing Potomac TRACON
04:55PM 39.2167 -76.9167 282° West 280 322 10,300 10,440 Climbing Potomac TRACON
04:57PM 39.0933 -77.1214 232° Southwest 339 390 40,000 2,880 Climbing Washington Center
04:58PM 39.0750 -77.2494 260° West 344 396 19,900 -6,960 Descending Washington Center
04:59PM 39.0063 -77.3104 218° Southwest  Level FlightAware Approximate
05:00PM 39.0581 -77.4067 262° West 358 412 23,100  Level Washington Center
05:01PM 39.0389 -77.5772 262° West 386 444 25,700 1,980 Climbing Washington Center
05:02PM 39.0197 -77.7211 260° West 410 472 27,000 600 Climbing Washington Center
05:03PM 39.0025 -77.8647 261° West 410 472 27,000 480 Level Washington Center
05:04PM 38.9894 -77.9953 263° West 410 472 28,000 1,320 Climbing Washington Center
05:05PM 38.9675 -78.1572 260° West 416 479 29,700 2,040 Climbing Washington Center
05:06PM 38.9625 -78.2881 267° West 416 479 32,100 2,280 Climbing Washington Center
05:07PM 38.9653 -78.4350 271° West 416 479 34,300 2,340 Climbing Washington Center
05:08PM 38.9722 -78.5794 274° West 411 473 36,800 2,100 Climbing Washington Center
05:09PM 38.9750 -78.7156 272° West 404 465 38,600 1,200 Climbing Washington Center
05:10PM 38.9797 -78.8547 273° West 399 459 39,200 660 Climbing Washington Center
05:11PM 38.9819 -78.9992 271° West 399 459 39,900 360 Climbing Washington Center
05:12PM 38.9881 -79.1461 273° West 411 473 40,000  Climbing Washington Center
05:13PM 38.9900 -79.2906 271° West 411 473 40,000  Level Washington Center
05:14PM 38.9917 -79.4350 271° West 405 466 40,000  Level Washington Center
05:15PM 38.9989 -79.5956 273° West 414 476 40,000  Level Washington Center
05:16PM 39.0003 -79.7425 271° West 419 482 40,000  Level Washington Center
05:17PM 39.0036 -79.8817 272° West 414 476 40,000  Level Washington Center
05:18PM 39.0031 -80.0381 270° West 399 459 40,000  Level Indianapolis Center
05:19PM 39.0056 -80.1644 271° West 397 457 40,000  Level Indianapolis Center
05:20PM 39.0258 -80.3019 281° West 394 453 40,000  Level Indianapolis Center
05:21PM 39.0461 -80.4397 281° West 395 455 40,000  Level Indianapolis Center
05:22PM 39.0683 -80.5769 282° West 395 455 40,000  Level Indianapolis Center
05:23PM 39.0944 -80.7456 281° West 400 460 40,000  Level Indianapolis Center
05:24PM 39.1158 -80.8853 281° West 400 460 40,000  Level Indianapolis Center
05:25PM 39.1375 -81.0250 281° West 402 463 40,000  Level Indianapolis Center
05:26PM 39.1597 -81.1653 282° West 404 465 40,000  Level Indianapolis Center
05:27PM 39.1803 -81.3061 281° West 404 465 40,000  Level Indianapolis Center
05:28PM 39.2011 -81.4464 281° West 402 463 40,000  Level Indianapolis Center
05:29PM 39.2217 -81.5881 281° West 403 464 40,000  Level Indianapolis Center
05:30PM 39.2419 -81.7297 281° West 405 466 40,000  Level Indianapolis Center
05:31PM 39.2619 -81.8706 280° West 402 463 40,000  Level Indianapolis Center
05:32PM 39.2825 -82.0108 281° West 400 460 40,000  Level Indianapolis Center
05:33PM 39.3022 -82.1517 280° West 399 459 40,000  Level Indianapolis Center
05:34PM 39.3253 -82.3183 280° West 396 456 40,000  Level Indianapolis Center
05:35PM 39.3500 -82.4575 283° West 398 458 40,000  Level Indianapolis Center
05:36PM 39.3861 -82.5961 289° West 398 458 40,000  Level Indianapolis Center
05:37PM 39.4214 -82.7328 289° West 400 460 40,000  Level Indianapolis Center
05:38PM 39.4639 -82.8664 292° West 401 461 40,000  Level Indianapolis Center
05:39PM 39.5069 -82.9975 293° West 397 457 40,000  Level Indianapolis Center
05:40PM 39.5522 -83.1272 294° West 395 455 40,000  Level Indianapolis Center
05:41PM 39.5950 -83.2561 293° West 391 450 40,000  Level Indianapolis Center
05:42PM 39.6403 -83.3853 295° West 390 449 40,000 -60 Level Indianapolis Center
05:43PM 39.6858 -83.5153 295° West 390 449 39,900  Descending Indianapolis Center
05:44PM 39.7331 -83.6464 295° West 392 451 40,000  Climbing Indianapolis Center
05:45PM 39.7819 -83.7753 296° West 392 451 40,000  Level Indianapolis Center
05:46PM 39.8325 -83.9050 297° West 397 457 40,000  Level Indianapolis Center
05:47PM 39.8872 -84.0336 299° West 403 464 40,000  Level Indianapolis Center
05:48PM 39.9433 -84.1631 300° West 408 470 40,000  Level Indianapolis Center
05:49PM 40.0017 -84.2931 300° West 413 475 40,000  Level Indianapolis Center
05:50PM 40.0572 -84.4256 299° West 417 480 40,000  Level Indianapolis Center
05:51PM 40.1119 -84.5603 298° West 419 482 40,000 -60 Level Indianapolis Center
05:53PM 40.1639 -84.6969 296° West 420 483 39,900  Descending Indianapolis Center
05:54PM 40.2142 -84.8300 296° West 411 473 40,000  Climbing Indianapolis Center
05:55PM 40.2489 -84.9864 286° West 412 474 40,000  Level Indianapolis Center
05:56PM 40.2775 -85.1292 285° West 409 471 40,000  Level Indianapolis Center
05:57PM 40.3003 -85.2731 282° West 407 468 40,000  Level Indianapolis Center
05:58PM 40.3217 -85.4164 281° West 405 466 40,000  Level Indianapolis Center
05:59PM 40.3444 -85.5897 280° West 405 466 40,000  Level Indianapolis Center
06:00PM 40.3594 -85.7342 278° West 404 465 40,000  Level Indianapolis Center
06:01PM 40.3786 -85.9097 278° West 408 470 40,000  Level Indianapolis Center
06:01PM 40.3889 -85.9958 279° West 409 471 40,000  Level Chicago Center
06:02PM 40.4044 -86.1439 278° West 413 475 40,000  Level Chicago Center
06:04PM 40.4206 -86.2889 278° West 407 468 40,000  Level Chicago Center
06:05PM 40.3942 -86.4250 256° West 408 470 40,000  Level Chicago Center
06:06PM 40.3278 -86.5367 232° Southwest 396 456 40,000 -360 Level Chicago Center
06:07PM 40.2611 -86.6483 232° Southwest 391 450 39,300 -900 Descending Chicago Center
06:08PM 40.1767 -86.7858 231° Southwest 403 464 38,200 -1,020 Descending Chicago Center
06:09PM 40.0981 -86.8950 227° Southwest 415 478 37,300 -960 Descending Chicago Center
06:10PM 40.0025 -86.9828 215° Southwest 423 487 36,300 -660 Descending Chicago Center
06:11PM 39.9053 -87.0728 215° Southwest 431 496 36,000 -180 Descending Chicago Center
06:12PM 39.8022 -87.1500 210° Southwest 431 496 36,000 -60 Level Chicago Center
06:13PM 39.7000 -87.2269 210° Southwest 429 494 35,900 -1,020 Descending Chicago Center
06:14PM 39.5753 -87.3189 210° Southwest 431 496 34,000 -1,080 Descending Chicago Center
06:15PM 39.5275 -87.4269 240° Southwest 430 495 34,000  Level Kansas City Center
06:15PM 39.5189 -87.4786 258° West 419 482 34,000  Level Indianapolis Center
06:16PM 39.4872 -87.6217 254° West 416 479 34,000  Level Indianapolis Center
06:17PM 39.4547 -87.7644 254° West 415 478 34,000 -840 Level Indianapolis Center
06:18PM 39.4158 -87.9356 254° West 415 478 32,300 -1,980 Descending Indianapolis Center
06:19PM 39.3839 -88.0814 254° West 423 487 30,000 -1,500 Descending Indianapolis Center
06:20PM 39.3658 -88.1469 250° West 418 481 30,000  Level Kansas City Center
06:21PM 39.3272 -88.2908 251° West 423 487 30,000  Level Kansas City Center
06:22PM 39.2872 -88.4375 251° West 428 493 30,000  Level Kansas City Center
06:23PM 39.2475 -88.5828 251° West 429 494 30,000 -1,200 Level Kansas City Center
06:24PM 39.2058 -88.7392 251° West 424 488 27,600 -2,340 Descending Kansas City Center
06:25PM 39.1692 -88.8753 251° West 410 472 25,300 -2,400 Descending Kansas City Center
06:26PM 39.1333 -89.0192 252° West 392 451 22,800 -2,340 Descending Kansas City Center
06:27PM 39.0983 -89.1458 250° West 381 438 20,600 -2,280 Descending Kansas City Center
06:28PM 39.0667 -89.2786 253° West 364 419 18,200 -2,400 Descending Kansas City Center
06:29PM 39.0400 -89.4000 254° West 356 410 15,800 -2,220 Descending Kansas City Center
06:30PM 39.0139 -89.5158 254° West 343 395 13,700 -1,980 Descending Kansas City Center
06:31PM 38.9686 -89.6156 240° Southwest 334 384 11,800 -1,800 Descending Kansas City Center
06:32PM 38.9150 -89.7172 236° Southwest 319 367 10,100 -1,440 Descending Kansas City Center
06:33PM 38.8708 -89.7986 235° Southwest 303 349 8,900 -1,440 Descending Kansas City Center
06:34PM 38.8275 -89.8783 235° Southwest 282 325 7,200 -1,920 Descending Kansas City Center
06:35PM 38.7858 -89.9550 235° Southwest 270 311 5,000 -1,920 Descending Kansas City Center
06:36PM 38.7442 -90.0319 235° Southwest 266 306 3,400 -840 Descending Kansas City Center
06:37PM 38.7219 -90.1028 248° West 231 266 3,400 -420 Level Kansas City Center
06:38PM 38.7117 -90.1731 259° West 210 242 2,600 -720 Descending Kansas City Center
06:39PM 38.7019 -90.2392 259° West 200 230 2,000 -600 Descending Kansas City Center
06:40PM 38.7125 -90.2886 285° West 170 196 1,500 -720 Descending Kansas City Center
06:41PM 38.7369 -90.3367 303° West 146 168 600 -900 Descending Kansas City Center
06:43PM 38.7333 -90.3667 288° West  Level FlightAware Approximate
06:50PM 38.7487 -90.3700 288° West  Level Estimated